createdAt,value
2022-08-04T01:40:13.039Z,21.18
2022-08-04T01:42:44.844Z,20.99
2022-08-04T01:45:15.276Z,20.85
2022-08-04T01:47:49.432Z,20.72
2022-08-04T01:50:18.201Z,20.61
2022-08-04T01:52:50.895Z,20.51
2022-08-04T02:16:44.096Z,20.40
2022-08-04T03:11:52.137Z,20.57
2022-08-04T03:14:56.255Z,20.38
2022-08-04T03:17:55.967Z,20.22
2022-08-04T03:20:53.433Z,20.09
2022-08-04T03:23:55.712Z,19.99
2022-08-04T03:27:03.475Z,19.89
2022-08-04T03:30:07.927Z,19.79
2022-08-04T03:32:58.417Z,19.69
2022-08-04T03:36:00.882Z,19.62
2022-08-04T03:38:57.447Z,19.56
2022-08-04T03:41:55.103Z,19.50
2022-08-04T03:45:20.484Z,19.46
2022-08-04T03:48:17.962Z,19.41
2022-08-04T03:51:32.510Z,19.38
2022-08-04T03:57:53.892Z,19.31
2022-08-04T04:19:49.942Z,19.87
2022-08-04T04:33:32.405Z,20.53
2022-08-04T04:36:10.629Z,20.59
2022-08-04T04:38:55.576Z,20.57
2022-08-04T04:41:42.385Z,20.51
2022-08-04T04:44:37.591Z,20.46
2022-08-04T04:47:14.401Z,20.41
2022-08-04T04:49:49.679Z,20.41
2022-08-04T04:52:28.367Z,20.44
2022-08-04T04:55:04.225Z,20.46
2022-08-04T04:57:53.011Z,20.46
2022-08-04T05:00:30.830Z,20.47
2022-08-04T05:03:36.966Z,20.47
2022-08-04T05:06:22.567Z,20.49
2022-08-04T05:09:04.581Z,20.48
2022-08-04T05:12:18.529Z,20.49
2022-08-04T05:15:07.036Z,20.49
2022-08-04T05:17:39.509Z,20.50
2022-08-04T05:20:12.797Z,20.51
2022-08-04T05:22:47.618Z,20.54
2022-08-04T05:25:22.577Z,20.56
2022-08-04T05:28:02.873Z,20.58
2022-08-04T05:30:36.836Z,20.62
2022-08-04T05:33:13.163Z,20.66
2022-08-04T05:36:17.031Z,20.70
2022-08-04T05:38:40.772Z,20.74
2022-08-04T05:41:13.442Z,20.81
2022-08-04T05:43:44.920Z,20.89
2022-08-04T05:46:15.257Z,20.99
2022-08-04T05:48:46.679Z,21.10
2022-08-04T05:51:16.414Z,21.19
2022-08-04T05:54:44.952Z,21.27
2022-08-04T05:57:14.951Z,21.36
2022-08-04T05:59:46.223Z,21.42
2022-08-04T06:02:17.425Z,21.50
2022-08-04T06:04:51.307Z,21.62
2022-08-04T06:07:20.021Z,21.74
2022-08-04T06:09:51.701Z,21.88
2022-08-04T06:12:25.190Z,22.07
2022-08-04T06:14:59.683Z,22.27
2022-08-04T06:19:57.459Z,22.41
2022-08-04T06:20:26.451Z,22.50
2022-08-04T06:22:59.999Z,22.56
2022-08-04T06:25:32.148Z,22.60
2022-08-04T06:28:30.088Z,22.65
2022-08-04T06:32:30.522Z,22.70
2022-08-04T06:33:56.048Z,22.77
2022-08-04T06:36:27.772Z,22.82
2022-08-04T06:38:58.506Z,22.88
2022-08-04T06:41:29.305Z,22.92
2022-08-04T06:44:03.305Z,22.96
2022-08-04T06:46:34.085Z,23.02
2022-08-04T06:49:06.927Z,23.07
2022-08-04T06:51:46.980Z,23.12
2022-08-04T06:54:17.747Z,23.20
2022-08-04T06:56:50.923Z,23.26
2022-08-04T06:59:21.664Z,23.33
2022-08-04T07:01:51.635Z,23.39
2022-08-04T07:04:20.537Z,23.44
2022-08-04T07:06:49.140Z,23.50
2022-08-04T07:09:17.951Z,23.55
2022-08-04T07:11:48.351Z,23.61
2022-08-04T07:14:18.847Z,23.69
2022-08-04T07:16:49.397Z,23.76
2022-08-04T07:19:19.137Z,23.82
2022-08-04T07:22:06.437Z,23.89
2022-08-04T07:24:38.453Z,23.97
2022-08-04T07:27:10.034Z,24.03
2022-08-04T07:29:39.772Z,24.11
2022-08-04T07:32:13.413Z,24.18
2022-08-04T07:34:42.864Z,24.27
2022-08-04T07:37:19.311Z,24.33
2022-08-04T07:39:48.929Z,24.39
2022-08-04T07:42:22.107Z,24.44
2022-08-04T07:44:50.759Z,24.51
2022-08-04T07:47:24.955Z,24.58
2022-08-04T07:50:12.453Z,24.66
2022-08-04T07:53:53.261Z,24.75
2022-08-04T07:56:10.103Z,24.84
2022-08-04T07:58:41.061Z,24.92
2022-08-04T08:01:10.500Z,25.00
2022-08-04T08:03:41.184Z,25.08
2022-08-04T08:06:17.631Z,25.18
2022-08-04T08:09:00.426Z,25.28
2022-08-04T08:12:35.711Z,25.36
2022-08-04T08:14:30.085Z,25.45
2022-08-04T08:18:04.960Z,25.53
2022-08-04T08:20:33.782Z,25.63
2022-08-04T08:23:05.403Z,25.72
2022-08-04T08:25:34.165Z,25.81
2022-08-04T08:28:13.023Z,25.87
2022-08-04T08:31:07.763Z,25.93
2022-08-04T08:34:27.334Z,26.07
2022-08-04T08:37:30.587Z,26.16
2022-08-04T08:41:46.177Z,26.23
2022-08-04T08:45:46.701Z,26.35
2022-08-04T08:59:51.783Z,27.04
2022-08-04T09:02:44.604Z,27.21
2022-08-04T09:05:37.525Z,27.20
2022-08-04T09:08:22.945Z,27.24
2022-08-04T09:10:58.700Z,27.23
2022-08-04T09:13:34.353Z,27.20
2022-08-04T09:16:14.407Z,27.21
2022-08-04T09:18:53.807Z,27.23
2022-08-04T09:21:44.609Z,27.25
2022-08-04T09:24:35.553Z,27.31
2022-08-04T09:27:13.008Z,27.42
2022-08-04T09:29:47.981Z,27.46
2022-08-04T09:32:30.714Z,27.51
2022-08-04T09:35:18.466Z,27.58
2022-08-04T09:38:02.277Z,27.65
2022-08-04T09:40:55.247Z,27.72
2022-08-04T09:44:41.945Z,27.73
2022-08-04T09:46:45.070Z,27.79
2022-08-04T09:49:18.244Z,27.78
2022-08-04T09:51:59.602Z,27.83
2022-08-04T09:54:42.868Z,27.87
2022-08-04T09:57:20.250Z,27.85
2022-08-04T09:59:57.875Z,27.90
2022-08-04T10:02:32.060Z,27.90
2022-08-04T10:05:03.802Z,27.97
2022-08-04T10:07:59.711Z,28.02
2022-08-04T10:10:53.212Z,28.07
2022-08-04T10:13:39.439Z,28.04
2022-08-04T10:16:24.119Z,28.08
2022-08-04T10:19:08.231Z,28.11
2022-08-04T10:21:59.580Z,28.10
2022-08-04T10:24:53.960Z,28.16
2022-08-04T10:27:30.084Z,28.17
2022-08-04T10:30:09.615Z,28.19
2022-08-04T10:32:44.264Z,28.25
2022-08-04T10:35:15.656Z,28.29
2022-08-04T10:38:01.271Z,28.35
2022-08-04T10:40:36.077Z,28.38
2022-08-04T10:43:21.913Z,28.43
2022-08-04T10:45:59.701Z,28.48
2022-08-04T10:48:41.494Z,28.51
2022-08-04T10:51:19.844Z,28.56
2022-08-04T10:53:54.753Z,28.62
2022-08-04T10:56:32.200Z,28.68
2022-08-04T10:59:10.284Z,28.71
2022-08-04T11:02:02.849Z,28.69
2022-08-04T11:04:37.561Z,28.71
2022-08-04T11:07:08.435Z,28.71
2022-08-04T11:09:39.681Z,28.76
2022-08-04T11:12:14.913Z,28.81
2022-08-04T11:14:51.170Z,28.82
2022-08-04T11:17:25.996Z,28.84
2022-08-04T11:20:33.004Z,28.88
2022-08-04T11:23:03.968Z,28.86
2022-08-04T11:25:42.257Z,28.86
2022-08-04T11:28:18.809Z,28.96
2022-08-04T11:30:53.520Z,29.03
2022-08-04T11:33:36.732Z,29.04
2022-08-04T11:36:14.939Z,29.06
2022-08-04T11:38:53.365Z,29.08
2022-08-04T11:41:30.392Z,29.09
2022-08-04T11:44:04.277Z,29.10
2022-08-04T11:46:42.109Z,29.12
2022-08-04T11:49:21.057Z,29.13
2022-08-04T11:51:52.259Z,29.13
2022-08-04T11:54:21.654Z,29.16
2022-08-04T11:56:50.583Z,29.22
2022-08-04T12:03:37.619Z,29.30
2022-08-04T12:06:17.830Z,29.34
2022-08-04T12:09:03.381Z,29.38
2022-08-04T12:11:52.196Z,29.42
2022-08-04T12:14:31.378Z,29.44
2022-08-04T12:17:02.431Z,29.46
2022-08-04T12:19:58.675Z,29.52
2022-08-04T12:22:31.537Z,29.55
2022-08-04T12:25:05.559Z,29.57
2022-08-04T12:27:43.927Z,29.57
2022-08-04T12:31:01.213Z,29.56
2022-08-04T12:34:04.670Z,29.60
2022-08-04T12:37:28.981Z,29.60
2022-08-04T12:53:31.816Z,30.04
2022-08-04T12:56:02.886Z,30.08
2022-08-04T12:58:44.107Z,30.05
2022-08-04T13:02:08.529Z,30.02
2022-08-04T13:04:15.213Z,30.00
2022-08-04T13:06:51.755Z,30.04
2022-08-04T13:09:23.442Z,30.04
2022-08-04T13:11:57.241Z,30.03
2022-08-04T13:14:31.516Z,29.99
2022-08-04T13:17:01.278Z,30.01
2022-08-04T13:19:30.882Z,29.98
2022-08-04T13:22:02.808Z,30.00
2022-08-04T13:24:41.642Z,29.98
2022-08-04T13:27:24.685Z,30.02
2022-08-04T13:29:58.628Z,30.05
2022-08-04T13:32:34.335Z,30.08
2022-08-04T13:35:05.351Z,30.03
2022-08-04T13:37:39.030Z,30.02
2022-08-04T13:40:14.303Z,30.00
2022-08-04T13:42:47.612Z,30.00
2022-08-04T13:45:20.118Z,29.97
2022-08-04T13:47:51.118Z,29.98
2022-08-04T13:50:23.257Z,30.01
2022-08-04T13:52:54.786Z,30.00
2022-08-04T13:55:25.984Z,30.01
2022-08-04T13:57:58.967Z,30.05
2022-08-04T14:00:41.440Z,30.09
2022-08-04T14:03:24.739Z,30.10
2022-08-04T14:06:24.984Z,30.07
2022-08-04T14:08:55.910Z,30.03
2022-08-04T14:12:09.085Z,30.02
2022-08-04T14:14:25.201Z,30.01
2022-08-04T14:16:59.230Z,30.02
2022-08-04T14:19:36.062Z,30.03
2022-08-04T14:22:05.625Z,30.04
2022-08-04T14:24:34.207Z,30.01
2022-08-04T14:27:02.991Z,30.02
2022-08-04T14:29:38.694Z,30.03
2022-08-04T14:32:12.796Z,30.02
2022-08-04T14:36:07.346Z,29.96
2022-08-04T14:38:56.507Z,29.95
2022-08-04T14:41:43.952Z,29.91
2022-08-04T14:44:12.420Z,29.94
2022-08-04T14:47:37.449Z,29.99
2022-08-04T15:13:03.903Z,30.23
2022-08-04T15:15:37.444Z,30.25
2022-08-04T15:18:09.051Z,30.25
2022-08-04T15:20:43.673Z,30.23
2022-08-04T15:23:12.864Z,30.22
2022-08-04T15:25:47.383Z,30.19
2022-08-04T15:28:19.683Z,30.16
2022-08-04T15:30:49.549Z,30.09
2022-08-04T15:33:24.143Z,30.06
2022-08-04T15:36:15.137Z,30.00
2022-08-04T15:38:55.968Z,29.99
2022-08-04T15:41:34.022Z,29.97
2022-08-04T15:44:59.165Z,29.91
2022-08-04T15:48:14.735Z,29.89
2022-08-04T15:51:07.725Z,29.86
2022-08-04T15:54:23.499Z,29.92
2022-08-04T16:01:24.308Z,29.80
2022-08-04T16:04:08.383Z,29.73
2022-08-04T16:07:15.085Z,29.75
2022-08-04T16:09:46.648Z,29.77
2022-08-04T16:13:08.227Z,29.80
2022-08-04T16:15:52.048Z,29.81
2022-08-04T16:18:50.262Z,29.81
2022-08-04T16:22:30.636Z,29.85
2022-08-04T16:25:01.514Z,29.88
2022-08-04T16:27:42.123Z,29.90
2022-08-04T16:30:14.705Z,29.93
2022-08-04T16:32:54.183Z,29.94
2022-08-04T16:35:51.973Z,29.93
2022-08-04T16:39:02.743Z,29.96
2022-08-04T16:41:41.394Z,29.95
2022-08-04T16:45:53.163Z,29.89
2022-08-04T16:50:17.034Z,29.79
2022-08-04T17:06:10.536Z,29.70
2022-08-04T17:19:26.008Z,29.55
2022-08-04T17:22:05.954Z,29.34
2022-08-04T17:24:40.857Z,29.22
2022-08-04T17:28:09.086Z,29.11
2022-08-04T17:30:06.312Z,28.99
2022-08-04T17:32:40.721Z,28.85
2022-08-04T17:35:13.203Z,28.76
2022-08-04T17:37:53.014Z,28.64
2022-08-04T17:40:26.755Z,28.52
2022-08-04T17:44:05.100Z,28.41
2022-08-04T17:46:29.764Z,28.32
2022-08-04T17:49:09.113Z,28.21
2022-08-04T17:52:04.548Z,28.13
2022-08-04T17:54:40.666Z,28.06
2022-08-04T17:57:22.303Z,28.00
2022-08-04T17:59:59.950Z,27.93
2022-08-04T18:02:35.013Z,27.85
2022-08-04T18:05:11.487Z,27.78
2022-08-04T18:08:42.792Z,27.70
2022-08-04T18:10:52.696Z,27.63
2022-08-04T18:13:29.669Z,27.55
2022-08-04T18:16:14.435Z,27.48
2022-08-04T18:19:12.293Z,27.39
2022-08-04T18:22:00.236Z,27.32
2022-08-04T18:24:55.532Z,27.24
2022-08-04T18:27:30.358Z,27.16
2022-08-04T18:30:28.660Z,27.10
2022-08-04T18:33:24.617Z,27.02
2022-08-04T18:36:35.435Z,26.93
2022-08-04T18:38:55.399Z,26.87
2022-08-04T18:42:02.243Z,26.78
2022-08-04T18:44:28.141Z,26.71
2022-08-04T18:47:19.432Z,26.64
2022-08-04T18:50:58.919Z,26.58
2022-08-04T18:52:46.496Z,26.50
2022-08-04T18:55:56.863Z,26.45
2022-08-04T18:58:12.809Z,26.38
2022-08-04T19:00:47.790Z,26.30
2022-08-04T19:03:23.087Z,26.23
2022-08-04T19:05:55.444Z,26.17
2022-08-04T19:08:35.731Z,26.12
2022-08-04T19:11:35.290Z,26.07
2022-08-04T19:14:13.291Z,25.99
2022-08-04T19:16:48.610Z,25.93
2022-08-04T19:19:21.062Z,25.89
2022-08-04T19:22:13.328Z,25.81
2022-08-04T19:25:05.717Z,25.73
2022-08-04T19:27:41.010Z,25.67
2022-08-04T19:30:13.962Z,25.61
2022-08-04T19:32:49.897Z,25.55
2022-08-04T19:36:17.164Z,25.46
2022-08-04T19:38:56.910Z,25.37
2022-08-04T19:41:31.168Z,25.36
2022-08-04T19:44:05.251Z,25.29
2022-08-04T19:46:37.808Z,25.25
2022-08-04T19:50:03.084Z,25.20
2022-08-04T19:52:03.611Z,25.16
2022-08-04T19:54:36.129Z,25.12
2022-08-04T19:57:15.743Z,25.07
2022-08-04T19:59:51.411Z,25.02
2022-08-04T20:02:27.353Z,24.97
2022-08-04T20:04:59.853Z,24.93
2022-08-04T20:07:34.546Z,24.88
2022-08-04T20:10:09.196Z,24.84
2022-08-04T20:12:45.388Z,24.79
2022-08-04T20:15:28.042Z,24.75
2022-08-04T20:18:08.144Z,24.70
2022-08-04T20:20:54.829Z,24.65
2022-08-04T20:23:28.841Z,24.61
2022-08-04T20:26:21.651Z,24.56
2022-08-04T20:28:54.857Z,24.53
2022-08-04T20:31:31.618Z,24.46
2022-08-04T20:34:04.970Z,24.43
2022-08-04T20:36:36.965Z,24.39
2022-08-04T20:39:09.727Z,24.35
2022-08-04T20:41:44.913Z,24.32
2022-08-04T20:44:22.119Z,24.26
2022-08-04T20:46:56.535Z,24.22
2022-08-04T20:49:34.862Z,24.17
2022-08-04T20:52:18.074Z,24.12
2022-08-04T20:54:56.185Z,24.08
2022-08-04T20:57:49.623Z,24.03
2022-08-04T21:05:15.747Z,23.88
2022-08-04T22:02:32.642Z,24.22
2022-08-04T22:29:45.387Z,23.98
2022-08-04T22:32:13.870Z,23.83
2022-08-04T22:34:53.476Z,23.71
2022-08-04T22:37:36.169Z,23.57
2022-08-04T22:40:14.596Z,23.43
2022-08-04T22:42:44.180Z,23.33
2022-08-04T22:45:14.306Z,23.22
2022-08-04T22:47:52.523Z,23.15
2022-08-04T22:50:27.017Z,23.07
2022-08-04T22:52:56.691Z,23.00
2022-08-04T22:56:07.381Z,22.92
2022-08-04T22:58:18.686Z,22.84
2022-08-04T23:00:47.440Z,22.78
2022-08-04T23:03:36.802Z,22.72
2022-08-04T23:06:10.632Z,22.65
2022-08-04T23:08:43.140Z,22.59
2022-08-04T23:11:16.787Z,22.55
2022-08-04T23:13:45.286Z,22.50
2022-08-04T23:16:13.887Z,22.45
2022-08-04T23:18:48.341Z,22.41
2022-08-04T23:21:24.694Z,22.37
2022-08-04T23:24:02.170Z,22.31
2022-08-04T23:26:31.211Z,22.26
2022-08-04T23:28:59.660Z,22.23
2022-08-04T23:31:40.851Z,22.20
2022-08-04T23:34:12.046Z,22.16
2022-08-04T23:36:41.353Z,22.12
2022-08-04T23:39:11.072Z,22.09
2022-08-04T23:41:55.460Z,22.05
2022-08-04T23:44:26.792Z,22.01
2022-08-04T23:47:00.373Z,21.97
2022-08-04T23:49:43.865Z,21.93
2022-08-04T23:52:23.438Z,21.89
2022-08-04T23:54:59.541Z,21.85
2022-08-04T23:58:05.167Z,21.83
